Time;durP1;ratioP1;P1;durP2;ratioP2;P2;SDS_P1;SDS_P2;PMS_P1;PMS_P2;Temp;Humidity;BMP_temperature;BMP_pressure;BME280_temperature;BME280_humidity;BME280_pressure;Samples;Min_cycle;Max_cycle;Signal;HPM_P1;HPM_P2
2023/06/23 00:04:02;;;;;;;6.35;4.37;;;29.30;78.50;;;;;;10889144;32;20027;-72
2023/06/23 00:10:05;;;;;;;7.20;4.32;;;29.30;78.60;;;;;;10898895;32;20058;-72
2023/06/23 00:16:08;;;;;;;6.47;4.00;;;29.30;78.30;;;;;;10901112;32;20050;-72
2023/06/23 00:22:10;;;;;;;9.77;4.60;;;29.30;78.00;;;;;;10830269;32;20062;-72
2023/06/23 00:28:11;;;;;;;8.93;4.75;;;29.30;78.00;;;;;;10823928;33;20029;-72
2023/06/23 00:34:13;;;;;;;6.37;4.35;;;29.20;78.60;;;;;;10824812;32;20016;-72
2023/06/23 00:40:16;;;;;;;10.75;4.53;;;29.20;78.50;;;;;;10817760;33;20390;-72
2023/06/23 00:46:20;;;;;;;7.25;4.35;;;29.10;78.50;;;;;;10829972;33;20047;-72
2023/06/23 00:52:24;;;;;;;7.00;4.78;;;29.10;78.20;;;;;;10830413;33;20329;-72
2023/06/23 00:58:28;;;;;;;5.53;3.62;;;29.10;78.40;;;;;;10830549;33;20058;-72
2023/06/23 01:04:32;;;;;;;8.38;3.87;;;29.10;78.50;;;;;;10830823;33;20042;-72
2023/06/23 01:10:42;;;;;;;6.47;4.50;;;29.00;78.50;;;;;;10816601;33;20059;-72
2023/06/23 01:16:55;;;;;;;13.13;4.75;;;28.80;78.60;;;;;;10830344;33;20460;-72
2023/06/23 01:23:45;;;;;;;8.52;5.53;;;28.80;78.50;;;;;;10828329;33;20027;-72
2023/06/23 01:29:52;;;;;;;7.07;5.30;;;28.90;78.20;;;;;;10679870;33;20056;-72
2023/06/23 01:36:03;;;;;;;6.30;4.78;;;28.80;78.40;;;;;;10679435;33;20045;-72
2023/06/23 01:42:12;;;;;;;6.37;5.12;;;28.80;78.30;;;;;;10675353;33;20087;-72
2023/06/23 01:48:15;;;;;;;6.55;4.37;;;28.70;78.20;;;;;;10679059;33;20087;-72
2023/06/23 01:54:20;;;;;;;5.75;4.65;;;28.50;78.40;;;;;;10676370;33;20037;-72
2023/06/23 02:00:22;;;;;;;5.07;4.28;;;28.50;78.50;;;;;;10677988;33;20056;-72
2023/06/23 02:06:26;;;;;;;10.13;5.47;;;28.50;78.40;;;;;;10828952;33;20016;-72
2023/06/23 02:12:30;;;;;;;10.88;6.35;;;28.60;78.50;;;;;;10828685;33;20325;-72
2023/06/23 02:18:35;;;;;;;6.50;4.37;;;28.60;78.50;;;;;;10827909;33;20054;-72
2023/06/23 02:24:39;;;;;;;7.57;4.93;;;28.50;78.40;;;;;;10815187;33;20004;-72
2023/06/23 02:30:43;;;;;;;6.37;4.22;;;28.40;78.60;;;;;;10826463;33;20030;-72
2023/06/23 02:36:49;;;;;;;7.53;5.57;;;28.40;78.30;;;;;;10826842;33;20083;-72
2023/06/23 02:43:18;;;;;;;8.57;5.62;;;28.30;78.30;;;;;;10827085;33;20012;-72
2023/06/23 02:49:26;;;;;;;6.72;5.03;;;28.30;78.40;;;;;;10814514;33;20326;-72
2023/06/23 02:55:30;;;;;;;6.18;4.82;;;28.20;78.50;;;;;;10826909;33;20046;-72
2023/06/23 03:01:40;;;;;;;7.53;5.07;;;28.20;78.60;;;;;;10827139;32;20039;-72
2023/06/23 03:07:42;;;;;;;9.90;5.97;;;28.20;78.30;;;;;;10824613;33;20020;-72
2023/06/23 03:13:47;;;;;;;6.75;4.70;;;28.20;78.30;;;;;;10812142;33;20402;-72
2023/06/23 03:20:08;;;;;;;9.05;5.62;;;28.10;78.40;;;;;;10825685;33;20197;-72
2023/06/23 03:26:12;;;;;;;15.85;6.53;;;28.20;78.40;;;;;;10825413;32;20069;-72
2023/06/23 03:32:21;;;;;;;6.85;4.55;;;28.10;78.50;;;;;;10825874;33;20042;-71
2023/06/23 03:38:25;;;;;;;8.63;5.50;;;28.00;78.70;;;;;;10825692;33;20028;-71
2023/06/23 03:44:33;;;;;;;7.15;5.10;;;28.00;78.60;;;;;;10821987;33;20307;-71
2023/06/23 03:50:36;;;;;;;;;;;27.90;78.70;;;;;;10826432;33;20505;-72
2023/06/23 03:56:39;;;;;;;7.20;5.43;;;27.80;78.70;;;;;;10821463;33;19940;-71
2023/06/23 04:02:44;;;;;;;6.15;4.37;;;27.80;78.90;;;;;;10825714;33;20042;-71
2023/06/23 04:08:48;;;;;;;9.40;6.43;;;27.80;78.90;;;;;;10822642;32;20047;-71
2023/06/23 04:14:53;;;;;;;10.82;5.72;;;27.80;78.70;;;;;;10832060;33;20028;-71
2023/06/23 04:20:57;;;;;;;8.27;6.12;;;27.90;78.70;;;;;;10832713;33;20042;-71
2023/06/23 04:27:01;;;;;;;6.03;5.10;;;27.80;78.80;;;;;;10816962;33;20361;-71
2023/06/23 04:33:03;;;;;;;6.95;5.35;;;27.80;79.00;;;;;;10819095;33;20046;-72
2023/06/23 04:39:31;;;;;;;12.55;7.18;;;27.70;79.20;;;;;;10830026;33;20089;-72
2023/06/23 04:45:37;;;;;;;9.27;7.00;;;27.80;79.60;;;;;;10829284;33;20028;-71
2023/06/23 04:51:49;;;;;;;8.63;6.65;;;27.80;79.80;;;;;;10831619;33;20043;-71
2023/06/23 04:57:55;;;;;;;10.10;6.80;;;28.00;79.50;;;;;;10830920;33;20395;-72
2023/06/23 05:04:00;;;;;;;11.77;7.07;;;28.20;79.50;;;;;;10830597;33;20260;-71
2023/06/23 05:10:05;;;;;;;8.68;6.82;;;28.20;79.40;;;;;;10831258;33;20016;-72
2023/06/23 05:16:10;;;;;;;7.70;5.47;;;28.20;79.30;;;;;;10815545;33;20032;-72
2023/06/23 05:22:15;;;;;;;10.73;6.68;;;28.20;79.80;;;;;;10830767;32;20016;-73
2023/06/23 05:28:22;;;;;;;9.02;6.87;;;28.30;80.00;;;;;;10829381;33;20020;-73
2023/06/23 05:34:26;;;;;;;9.05;7.05;;;28.40;79.90;;;;;;10828922;33;20334;-72
2023/06/23 05:40:28;;;;;;;11.40;6.65;;;28.60;80.10;;;;;;10815071;33;20036;-73
2023/06/23 05:46:35;;;;;;;9.10;6.85;;;28.80;80.30;;;;;;10828811;33;20025;-73
2023/06/23 05:52:41;;;;;;;9.73;7.83;;;29.00;80.30;;;;;;10828936;33;20012;-73
2023/06/23 05:58:46;;;;;;;9.07;6.40;;;29.10;79.90;;;;;;10815599;32;20436;-74
2023/06/23 06:04:50;;;;;;;7.80;5.65;;;29.20;79.90;;;;;;10828452;33;20047;-72
2023/06/23 06:10:56;;;;;;;13.02;6.15;;;29.20;80.00;;;;;;10824196;33;20039;-73
2023/06/23 06:17:00;;;;;;;10.88;5.45;;;29.10;80.20;;;;;;10827445;33;20366;-73
2023/06/23 06:23:04;;;;;;;7.32;5.47;;;29.20;79.90;;;;;;10827761;33;20042;-73
2023/06/23 06:29:08;;;;;;;7.82;6.22;;;29.30;79.90;;;;;;10827516;33;20027;-73
2023/06/23 06:35:11;;;;;;;8.35;6.22;;;29.20;80.30;;;;;;10826178;32;20051;-73
2023/06/23 06:41:15;;;;;;;10.63;7.72;;;29.10;80.30;;;;;;10826673;33;20050;-73
2023/06/23 06:47:17;;;;;;;8.05;5.50;;;29.10;80.40;;;;;;10827236;33;20038;-73
2023/06/23 06:53:20;;;;;;;7.57;5.87;;;29.10;80.50;;;;;;10815084;33;20054;-73
2023/06/23 06:59:22;;;;;;;9.77;6.95;;;29.20;80.30;;;;;;10826733;33;20055;-73
2023/06/23 07:05:24;;;;;;;15.88;8.38;;;29.20;80.10;;;;;;10827195;33;20020;-74
2023/06/23 07:11:28;;;;;;;8.25;7.15;;;29.30;79.80;;;;;;10827178;33;20409;-73
2023/06/23 07:17:30;;;;;;;8.52;6.72;;;29.50;79.60;;;;;;10827047;33;20035;-73
2023/06/23 07:23:32;;;;;;;11.55;8.70;;;29.70;79.30;;;;;;10826861;33;20417;-73
2023/06/23 07:29:34;;;;;;;8.80;7.78;;;29.80;78.60;;;;;;10814616;27;20036;-73
2023/06/23 07:35:36;;;;;;;12.00;8.35;;;29.80;78.40;;;;;;10811796;33;20035;-74
2023/06/23 07:41:39;;;;;;;13.15;9.68;;;29.80;78.60;;;;;;10826262;33;20039;-73
2023/06/23 07:47:45;;;;;;;11.73;10.32;;;29.80;78.10;;;;;;10812747;33;20276;-74
2023/06/23 07:53:47;;;;;;;11.88;9.02;;;29.90;77.20;;;;;;10824537;33;20482;-73
2023/06/23 07:59:49;;;;;;;13.57;11.68;;;30.00;76.60;;;;;;10824587;33;20382;-73
2023/06/23 08:05:51;;;;;;;14.07;9.32;;;30.30;76.40;;;;;;10822442;33;20350;-73
2023/06/23 08:11:53;;;;;;;10.15;7.70;;;30.30;75.40;;;;;;10824316;33;20035;-73
2023/06/23 08:17:55;;;;;;;16.75;8.20;;;30.30;74.90;;;;;;10823485;33;20052;-73
2023/06/23 08:23:58;;;;;;;9.98;7.85;;;30.40;74.90;;;;;;10824074;33;20047;-73
2023/06/23 08:30:00;;;;;;;12.52;8.48;;;30.60;74.20;;;;;;10823911;33;20019;-73
2023/06/23 08:36:02;;;;;;;12.25;9.13;;;30.70;73.10;;;;;;10804378;33;20055;-73
2023/06/23 08:42:05;;;;;;;13.00;7.95;;;30.80;72.60;;;;;;10773663;33;20024;-73
2023/06/23 08:48:09;;;;;;;16.27;9.30;;;30.90;72.30;;;;;;10787257;33;20032;-73
2023/06/23 08:54:11;;;;;;;11.68;8.02;;;31.20;71.90;;;;;;10786566;33;20046;-73
2023/06/23 09:00:14;;;;;;;13.90;6.82;;;31.20;71.10;;;;;;10792865;33;20366;-73
2023/06/23 09:06:16;;;;;;;15.77;7.10;;;31.20;71.20;;;;;;10792695;33;20052;-73
2023/06/23 09:12:20;;;;;;;8.05;6.55;;;31.10;71.10;;;;;;10776903;32;20029;-73
2023/06/23 09:18:22;;;;;;;11.20;6.37;;;31.00;71.60;;;;;;10792317;33;20020;-74
2023/06/23 09:24:42;;;;;;;11.32;6.05;;;30.90;71.50;;;;;;10792033;33;20063;-73
2023/06/23 09:30:45;;;;;;;11.00;5.12;;;30.90;71.20;;;;;;10791969;33;20012;-73
2023/06/23 09:36:47;;;;;;;7.72;5.50;;;31.10;71.30;;;;;;10777837;33;20048;-73
2023/06/23 09:42:49;;;;;;;9.38;6.40;;;31.40;70.40;;;;;;10791580;33;20047;-73
2023/06/23 09:48:52;;;;;;;11.20;6.32;;;31.80;69.10;;;;;;10791532;33;20016;-73
2023/06/23 09:54:55;;;;;;;8.73;5.43;;;32.00;67.90;;;;;;10791241;33;20021;-74
2023/06/23 10:01:02;;;;;;;8.00;5.85;;;32.20;67.10;;;;;;10765438;33;20055;-73
2023/06/23 10:07:25;;;;;;;11.27;7.37;;;32.40;68.60;;;;;;10790271;33;20395;-75
2023/06/23 10:13:27;;;;;;;11.05;6.78;;;32.50;67.00;;;;;;10790734;33;20051;-72
2023/06/23 10:19:30;;;;;;;11.32;7.18;;;32.50;68.90;;;;;;10790565;33;20308;-74
2023/06/23 10:25:38;;;;;;;7.10;5.32;;;32.30;68.10;;;;;;10786380;33;20421;-75
2023/06/23 10:31:41;;;;;;;7.75;6.07;;;32.10;68.00;;;;;;10789990;33;20040;-74
2023/06/23 10:37:46;;;;;;;7.93;6.40;;;31.80;67.50;;;;;;10789694;33;20029;-73
2023/06/23 10:43:52;;;;;;;11.10;6.43;;;31.60;67.30;;;;;;10789852;33;20024;-73
2023/06/23 10:49:56;;;;;;;9.13;6.20;;;31.30;68.00;;;;;;10765256;32;20036;-73
2023/06/23 10:55:58;;;;;;;18.60;9.20;;;31.00;67.60;;;;;;10789498;33;20024;-71
2023/06/23 11:02:01;;;;;;;15.50;8.00;;;30.60;65.40;;;;;;10789346;33;20043;-74
2023/06/23 11:08:04;;;;;;;10.55;7.05;;;29.80;64.80;;;;;;10789266;33;20047;-72
2023/06/23 11:14:15;;;;;;;18.08;7.62;;;29.10;64.00;;;;;;10773604;33;20377;-72
2023/06/23 11:20:20;;;;;;;12.52;8.65;;;28.50;66.60;;;;;;10788286;33;20036;-73
2023/06/23 11:26:29;;;;;;;12.63;11.32;;;27.90;69.90;;;;;;10788553;32;20029;-72
2023/06/23 11:32:32;;;;;;;24.75;17.25;;;27.40;72.80;;;;;;10788533;33;20020;-72
2023/06/23 11:38:36;;;;;;;21.02;13.95;;;26.80;73.20;;;;;;10771673;33;20060;-72
2023/06/23 11:44:38;;;;;;;25.60;13.73;;;25.30;74.20;;;;;;10775109;33;20406;-76
2023/06/23 11:50:42;;;;;;;21.75;16.17;;;25.00;79.00;;;;;;10784755;33;20020;-76
2023/06/23 11:56:44;;;;;;;16.23;10.43;;;24.70;80.50;;;;;;10771738;32;20398;-70
2023/06/23 12:02:49;;;;;;;13.07;6.97;;;24.80;81.60;;;;;;10787797;33;20424;-72
2023/06/23 12:08:52;;;;;;;15.45;8.10;;;25.20;81.50;;;;;;10774422;33;20342;-69
2023/06/23 12:14:59;;;;;;;10.48;6.35;;;25.60;81.70;;;;;;10787447;33;20032;-70
2023/06/23 12:21:01;;;;;;;6.13;4.93;;;25.90;81.50;;;;;;10787382;33;20059;-69
2023/06/23 12:27:04;;;;;;;9.20;5.82;;;26.10;81.00;;;;;;10784776;33;20121;-69
2023/06/23 12:33:19;;;;;;;12.32;6.35;;;26.30;80.60;;;;;;10790961;33;20063;-69
2023/06/23 12:39:22;;;;;;;8.52;5.40;;;26.40;80.50;;;;;;10793385;33;20410;-69
2023/06/23 12:45:25;;;;;;;9.98;5.50;;;26.40;80.50;;;;;;10793192;33;20020;-69
2023/06/23 12:51:34;;;;;;;9.15;6.00;;;26.30;80.30;;;;;;10792996;33;20441;-69
2023/06/23 12:57:37;;;;;;;16.85;8.35;;;26.40;80.30;;;;;;10792697;33;20418;-69
2023/06/23 13:03:40;;;;;;;10.18;7.87;;;26.60;80.60;;;;;;10792760;33;20021;-69
2023/06/23 13:09:42;;;;;;;11.82;9.00;;;26.80;81.40;;;;;;10792609;33;20396;-70
2023/06/23 13:15:45;;;;;;;14.30;7.60;;;26.80;81.60;;;;;;10788198;33;20025;-71
2023/06/23 13:21:51;;;;;;;10.45;6.78;;;26.80;81.50;;;;;;10778986;33;20021;-72
2023/06/23 13:27:53;;;;;;;7.82;4.65;;;26.70;80.90;;;;;;10778262;33;20031;-71
2023/06/23 13:33:55;;;;;;;8.90;6.72;;;26.70;80.70;;;;;;10791793;33;20047;-72
2023/06/23 13:39:57;;;;;;;5.43;4.00;;;26.70;80.50;;;;;;10792843;33;20071;-72
2023/06/23 13:46:00;;;;;;;6.70;4.47;;;26.70;80.20;;;;;;10790532;33;20039;-72
2023/06/23 13:52:06;;;;;;;6.15;3.72;;;26.90;80.20;;;;;;10783641;33;20265;-72
2023/06/23 13:58:09;;;;;;;10.27;3.45;;;27.10;80.00;;;;;;10814273;33;20349;-71
2023/06/23 14:04:11;;;;;;;6.25;4.50;;;27.20;79.70;;;;;;10827910;33;20362;-72
2023/06/23 14:10:14;;;;;;;6.37;4.35;;;27.30;79.50;;;;;;10814567;33;20039;-71
2023/06/23 14:16:17;;;;;;;7.62;3.87;;;27.40;79.30;;;;;;10827355;33;20055;-71
2023/06/23 14:22:19;;;;;;;6.95;4.72;;;27.80;79.20;;;;;;10827358;33;20038;-71
2023/06/23 14:28:21;;;;;;;140.60;42.58;;;27.90;79.30;;;;;;10813537;33;20024;-71
2023/06/23 14:34:24;;;;;;;18.87;8.82;;;27.90;80.10;;;;;;10826623;33;20035;-72
2023/06/23 14:40:26;;;;;;;13.00;5.45;;;27.90;80.20;;;;;;10813686;33;20329;-72
2023/06/23 14:46:28;;;;;;;9.85;4.80;;;28.00;80.60;;;;;;10826394;33;20035;-72
2023/06/23 14:52:30;;;;;;;12.55;5.62;;;28.00;80.70;;;;;;10812945;32;20058;-72
2023/06/23 14:58:32;;;;;;;14.80;3.83;;;28.00;81.00;;;;;;10825642;33;20386;-72
2023/06/23 15:04:35;;;;;;;5.85;3.42;;;28.00;80.90;;;;;;10825913;33;20046;-73
2023/06/23 15:10:37;;;;;;;6.05;2.35;;;28.10;81.10;;;;;;10825776;33;20048;-72
2023/06/23 15:16:39;;;;;;;11.93;4.45;;;28.20;80.70;;;;;;10821655;33;20398;-72
2023/06/23 15:22:42;;;;;;;6.18;3.60;;;28.20;80.20;;;;;;10825425;33;20020;-73
2023/06/23 15:28:44;;;;;;;6.65;3.03;;;28.30;80.10;;;;;;10264052;32;16904564;-73
2023/06/23 15:34:46;;;;;;;13.23;3.35;;;28.60;79.20;;;;;;10748316;33;20032;-72
2023/06/23 15:40:48;;;;;;;5.30;3.35;;;28.60;78.00;;;;;;10748171;33;20028;-73
2023/06/23 15:46:51;;;;;;;10.65;4.65;;;28.60;77.70;;;;;;10736919;32;20067;-71
2023/06/23 15:52:54;;;;;;;9.85;4.57;;;28.60;77.30;;;;;;10746463;33;20071;-72
2023/06/23 15:58:59;;;;;;;10.68;4.68;;;28.70;77.00;;;;;;10783941;33;20424;-73
2023/06/23 16:05:02;;;;;;;12.80;5.18;;;28.70;76.10;;;;;;10773859;33;20419;-73
2023/06/23 16:11:05;;;;;;;7.10;4.75;;;28.70;76.40;;;;;;10787529;33;20029;-73
2023/06/23 16:17:08;;;;;;;4.72;3.03;;;28.80;76.40;;;;;;10783114;33;20488;-72
2023/06/23 16:23:10;;;;;;;9.07;4.03;;;28.90;75.90;;;;;;10770127;33;20035;-72
2023/06/23 16:29:12;;;;;;;6.93;2.47;;;28.90;75.80;;;;;;10787094;33;20024;-74
2023/06/23 16:35:16;;;;;;;4.05;2.33;;;28.90;76.10;;;;;;10786163;33;20055;-72
2023/06/23 16:41:18;;;;;;;7.40;3.03;;;28.90;76.00;;;;;;10781386;33;20048;-74
2023/06/23 16:47:20;;;;;;;13.50;3.75;;;29.00;75.90;;;;;;10779957;33;20083;-73
2023/06/23 16:53:22;;;;;;;8.77;3.62;;;29.00;75.20;;;;;;10779665;33;20115;-73
2023/06/23 16:59:24;;;;;;;10.93;3.85;;;29.10;75.40;;;;;;10786166;33;20046;-74
2023/06/23 17:05:27;;;;;;;14.45;4.60;;;29.10;75.60;;;;;;10786275;33;20046;-74
2023/06/23 17:11:29;;;;;;;6.28;2.37;;;29.10;75.10;;;;;;10785540;33;20016;-72
2023/06/23 17:17:31;;;;;;;9.60;2.42;;;29.10;75.30;;;;;;10786114;33;20411;-73
2023/06/23 17:23:33;;;;;;;6.90;2.10;;;28.90;75.90;;;;;;10791303;33;20016;-73
2023/06/23 17:29:37;;;;;;;4.68;2.67;;;28.90;76.10;;;;;;10778513;33;20059;-73
2023/06/23 17:35:39;;;;;;;6.07;2.35;;;29.00;75.90;;;;;;10791535;33;20104;-73
2023/06/23 17:41:41;;;;;;;2.28;1.60;;;29.00;76.30;;;;;;10791609;33;20024;-73
2023/06/23 17:47:44;;;;;;;3.95;1.70;;;29.00;76.40;;;;;;10791436;33;20020;-73
2023/06/23 17:53:47;;;;;;;3.75;1.92;;;29.00;76.40;;;;;;10791143;33;20055;-73
2023/06/23 17:59:49;;;;;;;7.07;2.12;;;29.20;76.40;;;;;;10777319;33;20040;-73
2023/06/23 18:05:53;;;;;;;13.65;2.10;;;29.60;76.30;;;;;;10777877;33;20021;-72
2023/06/23 18:11:55;;;;;;;3.42;1.70;;;29.50;76.90;;;;;;10790795;33;20047;-73
2023/06/23 18:17:57;;;;;;;3.58;1.77;;;29.20;77.30;;;;;;10790662;33;20094;-73
2023/06/23 18:24:01;;;;;;;4.32;1.87;;;28.90;77.60;;;;;;10789439;33;20419;-73
2023/06/23 18:30:04;;;;;;;2.65;1.58;;;28.80;77.80;;;;;;10789183;33;20029;-72
2023/06/23 18:36:09;;;;;;;3.90;1.50;;;28.70;77.90;;;;;;10790044;33;20353;-72
2023/06/23 18:42:11;;;;;;;4.28;1.17;;;28.50;78.30;;;;;;10789885;33;20058;-73
2023/06/23 18:48:13;;;;;;;3.20;1.55;;;28.40;78.50;;;;;;10788967;33;20312;-73
2023/06/23 18:54:18;;;;;;;2.75;1.70;;;28.30;78.90;;;;;;10789287;33;20040;-72
2023/06/23 19:00:20;;;;;;;4.68;2.15;;;28.20;79.40;;;;;;10775932;33;20029;-72
2023/06/23 19:06:24;;;;;;;1.67;1.33;;;28.00;79.90;;;;;;10788699;33;20058;-73
2023/06/23 19:12:26;;;;;;;3.25;1.95;;;27.90;80.00;;;;;;10789073;33;20043;-73
2023/06/23 19:18:28;;;;;;;3.12;1.30;;;27.80;79.90;;;;;;10788728;33;20028;-72
2023/06/23 19:24:33;;;;;;;4.07;1.42;;;27.70;80.10;;;;;;10788750;33;20017;-73
2023/06/23 19:30:38;;;;;;;10.10;2.37;;;27.60;80.20;;;;;;10786413;33;20307;-72
2023/06/23 19:36:40;;;;;;;3.87;1.65;;;27.50;79.90;;;;;;10784436;33;20028;-72
2023/06/23 19:42:42;;;;;;;4.10;1.98;;;27.40;80.10;;;;;;10774057;33;20110;-72
2023/06/23 19:48:44;;;;;;;4.50;1.87;;;27.30;80.00;;;;;;10787932;33;20020;-72
2023/06/23 19:54:47;;;;;;;2.58;1.87;;;27.30;80.10;;;;;;10787850;33;20024;-73
2023/06/23 20:00:49;;;;;;;3.37;1.92;;;27.20;80.30;;;;;;10787805;33;20047;-72
2023/06/23 20:06:51;;;;;;;6.75;2.35;;;27.00;80.50;;;;;;10780227;32;20037;-72
2023/06/23 20:12:54;;;;;;;3.83;2.12;;;27.00;80.30;;;;;;10750960;33;20261;-72
2023/06/23 20:18:56;;;;;;;5.87;2.20;;;27.00;80.40;;;;;;10750468;33;20032;-72
2023/06/23 20:24:58;;;;;;;3.10;1.65;;;27.00;80.50;;;;;;10750404;33;20021;-73
2023/06/23 20:31:00;;;;;;;2.87;1.45;;;26.90;80.60;;;;;;10747897;33;20021;-73
2023/06/23 20:37:03;;;;;;;3.35;1.83;;;26.90;80.80;;;;;;10734869;33;20051;-73
2023/06/23 20:43:05;;;;;;;3.47;1.60;;;26.80;81.10;;;;;;10746317;33;20024;-73
2023/06/23 20:49:07;;;;;;;1.50;1.12;;;26.80;81.20;;;;;;10724749;33;20072;-73
2023/06/23 20:55:10;;;;;;;4.37;1.80;;;26.80;81.20;;;;;;10741580;33;20051;-73
2023/06/23 21:01:12;;;;;;;1.95;1.10;;;26.70;81.20;;;;;;10756265;33;20017;-73
2023/06/23 21:07:14;;;;;;;2.37;1.52;;;26.60;81.30;;;;;;10743250;33;20047;-72
2023/06/23 21:13:16;;;;;;;2.12;0.95;;;26.50;81.40;;;;;;10743104;33;20021;-73
2023/06/23 21:19:18;;;;;;;2.22;1.42;;;26.50;81.40;;;;;;10755785;33;20043;-73
2023/06/23 21:25:21;;;;;;;2.15;1.00;;;26.50;81.40;;;;;;10742288;33;20036;-72
2023/06/23 21:31:24;;;;;;;1.85;1.10;;;26.40;81.40;;;;;;10755601;33;20043;-73
2023/06/23 21:37:26;;;;;;;2.80;1.35;;;26.30;81.50;;;;;;10755228;33;20055;-73
2023/06/23 21:43:29;;;;;;;1.73;1.30;;;26.30;81.60;;;;;;10772880;33;20028;-73
2023/06/23 21:49:31;;;;;;;0.90;0.80;;;26.30;81.50;;;;;;10791606;33;20020;-73
2023/06/23 21:55:35;;;;;;;2.87;1.50;;;26.20;81.30;;;;;;10791293;33;20028;-73
2023/06/23 22:01:37;;;;;;;2.80;1.42;;;26.30;81.50;;;;;;10790875;33;20184;-73
2023/06/23 22:07:39;;;;;;;1.60;1.27;;;26.20;81.60;;;;;;10777305;33;20094;-73
2023/06/23 22:13:53;;;;;;;2.55;1.55;;;26.00;81.60;;;;;;10790957;33;20024;-73
2023/06/23 22:19:56;;;;;;;3.03;1.23;;;25.90;81.60;;;;;;10790822;33;20051;-73
2023/06/23 22:25:57;;;;;;;3.58;1.67;;;25.80;81.60;;;;;;10761188;33;20079;-73
2023/06/23 22:32:00;;;;;;;2.70;1.37;;;25.80;81.60;;;;;;10789116;33;20028;-73
2023/06/23 22:38:01;;;;;;;3.03;1.92;;;25.80;81.20;;;;;;10790177;33;20012;-73
2023/06/23 22:44:03;;;;;;;3.15;1.45;;;25.60;81.30;;;;;;10790062;33;20020;-73
2023/06/23 22:50:06;;;;;;;2.70;1.40;;;25.60;81.40;;;;;;10789767;33;20035;-73
2023/06/23 22:56:09;;;;;;;4.75;1.62;;;25.60;81.10;;;;;;10763801;33;20403;-73
2023/06/23 23:02:11;;;;;;;2.67;1.33;;;25.40;81.20;;;;;;10789434;33;20346;-73
2023/06/23 23:08:13;;;;;;;4.20;2.22;;;25.30;81.30;;;;;;10774279;33;20058;-73
2023/06/23 23:14:15;;;;;;;2.97;1.92;;;25.40;80.80;;;;;;10772626;33;20070;-73
2023/06/23 23:20:17;;;;;;;6.10;1.90;;;25.40;80.50;;;;;;10788910;33;20370;-73
2023/06/23 23:26:28;;;;;;;3.47;1.45;;;25.30;80.80;;;;;;10795758;27;20028;-73
2023/06/23 23:32:31;;;;;;;5.30;2.97;;;25.10;80.90;;;;;;10812270;33;20291;-73
2023/06/23 23:38:33;;;;;;;4.07;2.08;;;25.10;80.90;;;;;;10825056;33;20028;-73
2023/06/23 23:44:35;;;;;;;4.40;1.85;;;25.10;81.00;;;;;;10825020;33;20016;-73
2023/06/23 23:50:46;;;;;;;2.90;1.60;;;25.00;81.10;;;;;;10803039;33;20028;-73
2023/06/23 23:56:49;;;;;;;3.83;2.20;;;24.90;81.10;;;;;;10789700;33;20063;-73
